sensor_id;sensor_type;location;lat;lon;timestamp;P1;durP1;ratioP1;P2;durP2;ratioP2
16792;SDS011;8513;42.662;23.350;2022-08-21T00:00:22;15.40;;;13.68;;
16792;SDS011;8513;42.662;23.350;2022-08-21T00:02:56;16.15;;;14.63;;
16792;SDS011;8513;42.662;23.350;2022-08-21T00:05:28;16.77;;;14.63;;
16792;SDS011;8513;42.662;23.350;2022-08-21T00:07:54;15.63;;;13.98;;
16792;SDS011;8513;42.662;23.350;2022-08-21T00:10:20;18.15;;;14.30;;
16792;SDS011;8513;42.662;23.350;2022-08-21T00:12:46;14.93;;;13.38;;
16792;SDS011;8513;42.662;23.350;2022-08-21T00:15:14;16.15;;;13.98;;
16792;SDS011;8513;42.662;23.350;2022-08-21T00:17:41;14.80;;;12.85;;
16792;SDS011;8513;42.662;23.350;2022-08-21T00:20:07;17.77;;;13.18;;
16792;SDS011;8513;42.662;23.350;2022-08-21T00:22:35;16.35;;;13.35;;
16792;SDS011;8513;42.662;23.350;2022-08-21T00:25:01;14.75;;;13.32;;
16792;SDS011;8513;42.662;23.350;2022-08-21T00:27:28;16.08;;;13.65;;
16792;SDS011;8513;42.662;23.350;2022-08-21T00:29:53;14.63;;;13.13;;
16792;SDS011;8513;42.662;23.350;2022-08-21T00:32:23;10.90;;;9.65;;
16792;SDS011;8513;42.662;23.350;2022-08-21T00:34:50;10.20;;;9.05;;
16792;SDS011;8513;42.662;23.350;2022-08-21T00:37:16;12.20;;;9.82;;
16792;SDS011;8513;42.662;23.350;2022-08-21T00:39:42;11.88;;;9.18;;
16792;SDS011;8513;42.662;23.350;2022-08-21T00:42:08;10.68;;;9.45;;
16792;SDS011;8513;42.662;23.350;2022-08-21T00:44:33;10.23;;;9.20;;
16792;SDS011;8513;42.662;23.350;2022-08-21T00:46:59;10.95;;;9.63;;
16792;SDS011;8513;42.662;23.350;2022-08-21T00:49:25;11.15;;;9.18;;
16792;SDS011;8513;42.662;23.350;2022-08-21T00:51:51;11.88;;;9.40;;
16792;SDS011;8513;42.662;23.350;2022-08-21T00:54:21;11.85;;;10.45;;
16792;SDS011;8513;42.662;23.350;2022-08-21T00:56:50;15.55;;;12.40;;
16792;SDS011;8513;42.662;23.350;2022-08-21T00:59:19;22.02;;;15.93;;
16792;SDS011;8513;42.662;23.350;2022-08-21T01:01:46;20.25;;;15.30;;
16792;SDS011;8513;42.662;23.350;2022-08-21T01:04:12;21.38;;;19.17;;
16792;SDS011;8513;42.662;23.350;2022-08-21T01:06:37;19.67;;;17.58;;
16792;SDS011;8513;42.662;23.350;2022-08-21T01:09:03;19.92;;;17.33;;
16792;SDS011;8513;42.662;23.350;2022-08-21T01:11:29;19.27;;;17.20;;
16792;SDS011;8513;42.662;23.350;2022-08-21T01:13:55;22.73;;;17.92;;
16792;SDS011;8513;42.662;23.350;2022-08-21T01:16:20;21.45;;;18.67;;
16792;SDS011;8513;42.662;23.350;2022-08-21T01:18:47;24.23;;;20.05;;
16792;SDS011;8513;42.662;23.350;2022-08-21T01:21:15;27.90;;;20.58;;
16792;SDS011;8513;42.662;23.350;2022-08-21T01:23:45;24.27;;;19.98;;
16792;SDS011;8513;42.662;23.350;2022-08-21T01:26:12;23.17;;;18.48;;
16792;SDS011;8513;42.662;23.350;2022-08-21T01:28:42;23.88;;;19.35;;
16792;SDS011;8513;42.662;23.350;2022-08-21T01:31:11;26.65;;;19.10;;
16792;SDS011;8513;42.662;23.350;2022-08-21T01:33:38;21.92;;;17.98;;
16792;SDS011;8513;42.662;23.350;2022-08-21T01:36:04;19.98;;;17.85;;
16792;SDS011;8513;42.662;23.350;2022-08-21T01:38:30;24.52;;;18.05;;
16792;SDS011;8513;42.662;23.350;2022-08-21T01:40:55;19.30;;;16.92;;
16792;SDS011;8513;42.662;23.350;2022-08-21T01:43:21;20.15;;;17.02;;
16792;SDS011;8513;42.662;23.350;2022-08-21T01:45:46;16.90;;;15.07;;
16792;SDS011;8513;42.662;23.350;2022-08-21T01:48:12;15.32;;;12.77;;
16792;SDS011;8513;42.662;23.350;2022-08-21T01:50:37;19.42;;;15.60;;
16792;SDS011;8513;42.662;23.350;2022-08-21T01:53:03;16.65;;;14.60;;
16792;SDS011;8513;42.662;23.350;2022-08-21T01:55:29;15.68;;;12.57;;
16792;SDS011;8513;42.662;23.350;2022-08-21T01:57:54;19.67;;;15.73;;
16792;SDS011;8513;42.662;23.350;2022-08-21T02:00:21;18.40;;;15.23;;
16792;SDS011;8513;42.662;23.350;2022-08-21T02:02:50;12.15;;;10.00;;
16792;SDS011;8513;42.662;23.350;2022-08-21T02:05:16;15.38;;;13.30;;
16792;SDS011;8513;42.662;23.350;2022-08-21T02:07:44;17.38;;;14.00;;
16792;SDS011;8513;42.662;23.350;2022-08-21T02:10:13;17.70;;;15.55;;
16792;SDS011;8513;42.662;23.350;2022-08-21T02:12:40;20.20;;;14.93;;
16792;SDS011;8513;42.662;23.350;2022-08-21T02:15:06;20.05;;;16.27;;
16792;SDS011;8513;42.662;23.350;2022-08-21T02:17:37;18.23;;;15.73;;
16792;SDS011;8513;42.662;23.350;2022-08-21T02:20:06;20.17;;;15.48;;
16792;SDS011;8513;42.662;23.350;2022-08-21T02:22:33;18.90;;;15.93;;
16792;SDS011;8513;42.662;23.350;2022-08-21T02:24:58;22.15;;;18.05;;
16792;SDS011;8513;42.662;23.350;2022-08-21T02:27:24;21.85;;;17.13;;
16792;SDS011;8513;42.662;23.350;2022-08-21T02:29:50;21.30;;;16.30;;
16792;SDS011;8513;42.662;23.350;2022-08-21T02:32:16;18.92;;;15.40;;
16792;SDS011;8513;42.662;23.350;2022-08-21T02:34:41;18.38;;;15.65;;
16792;SDS011;8513;42.662;23.350;2022-08-21T02:37:06;17.38;;;14.93;;
16792;SDS011;8513;42.662;23.350;2022-08-21T02:39:32;17.55;;;15.65;;
16792;SDS011;8513;42.662;23.350;2022-08-21T02:41:57;17.75;;;14.75;;
16792;SDS011;8513;42.662;23.350;2022-08-21T02:44:23;18.20;;;15.80;;
16792;SDS011;8513;42.662;23.350;2022-08-21T02:46:48;18.23;;;16.13;;
16792;SDS011;8513;42.662;23.350;2022-08-21T02:49:14;19.85;;;16.33;;
16792;SDS011;8513;42.662;23.350;2022-08-21T02:51:39;18.95;;;16.35;;
16792;SDS011;8513;42.662;23.350;2022-08-21T02:54:05;18.55;;;15.65;;
16792;SDS011;8513;42.662;23.350;2022-08-21T02:56:30;18.67;;;16.70;;
16792;SDS011;8513;42.662;23.350;2022-08-21T02:58:56;17.67;;;15.32;;
16792;SDS011;8513;42.662;23.350;2022-08-21T03:01:21;18.05;;;15.25;;
16792;SDS011;8513;42.662;23.350;2022-08-21T03:03:47;18.23;;;16.10;;
16792;SDS011;8513;42.662;23.350;2022-08-21T03:06:15;19.05;;;15.25;;
16792;SDS011;8513;42.662;23.350;2022-08-21T03:08:41;17.27;;;15.38;;
16792;SDS011;8513;42.662;23.350;2022-08-21T03:11:10;16.25;;;14.52;;
16792;SDS011;8513;42.662;23.350;2022-08-21T03:13:37;16.45;;;14.73;;
16792;SDS011;8513;42.662;23.350;2022-08-21T03:16:03;16.92;;;14.05;;
16792;SDS011;8513;42.662;23.350;2022-08-21T03:18:29;18.48;;;13.15;;
16792;SDS011;8513;42.662;23.350;2022-08-21T03:20:54;14.88;;;11.57;;
16792;SDS011;8513;42.662;23.350;2022-08-21T03:23:21;11.50;;;9.48;;
16792;SDS011;8513;42.662;23.350;2022-08-21T03:25:47;13.38;;;10.45;;
16792;SDS011;8513;42.662;23.350;2022-08-21T03:28:14;15.77;;;10.75;;
16792;SDS011;8513;42.662;23.350;2022-08-21T03:30:43;17.60;;;12.20;;
16792;SDS011;8513;42.662;23.350;2022-08-21T03:33:10;11.50;;;9.93;;
16792;SDS011;8513;42.662;23.350;2022-08-21T03:35:36;16.33;;;10.18;;
16792;SDS011;8513;42.662;23.350;2022-08-21T03:38:02;11.93;;;9.23;;
16792;SDS011;8513;42.662;23.350;2022-08-21T03:40:28;10.38;;;8.55;;
16792;SDS011;8513;42.662;23.350;2022-08-21T03:42:53;12.50;;;9.23;;
16792;SDS011;8513;42.662;23.350;2022-08-21T03:45:19;11.15;;;9.77;;
16792;SDS011;8513;42.662;23.350;2022-08-21T03:47:55;12.50;;;10.25;;
16792;SDS011;8513;42.662;23.350;2022-08-21T03:50:24;10.13;;;9.07;;
16792;SDS011;8513;42.662;23.350;2022-08-21T03:52:51;10.40;;;7.53;;
16792;SDS011;8513;42.662;23.350;2022-08-21T03:55:16;9.23;;;6.72;;
16792;SDS011;8513;42.662;23.350;2022-08-21T03:57:42;8.43;;;5.75;;
16792;SDS011;8513;42.662;23.350;2022-08-21T04:00:09;6.68;;;5.40;;
16792;SDS011;8513;42.662;23.350;2022-08-21T04:02:37;10.38;;;4.93;;
16792;SDS011;8513;42.662;23.350;2022-08-21T04:05:03;5.68;;;4.68;;
16792;SDS011;8513;42.662;23.350;2022-08-21T04:07:30;8.25;;;4.85;;
16792;SDS011;8513;42.662;23.350;2022-08-21T04:09:55;7.90;;;5.18;;
16792;SDS011;8513;42.662;23.350;2022-08-21T04:12:21;6.55;;;4.93;;
16792;SDS011;8513;42.662;23.350;2022-08-21T04:14:46;10.30;;;6.20;;
16792;SDS011;8513;42.662;23.350;2022-08-21T04:17:12;9.73;;;5.78;;
16792;SDS011;8513;42.662;23.350;2022-08-21T04:19:37;9.07;;;7.55;;
16792;SDS011;8513;42.662;23.350;2022-08-21T04:22:03;10.25;;;7.82;;
16792;SDS011;8513;42.662;23.350;2022-08-21T04:24:29;9.85;;;7.85;;
16792;SDS011;8513;42.662;23.350;2022-08-21T04:26:54;10.52;;;8.05;;
16792;SDS011;8513;42.662;23.350;2022-08-21T04:29:20;9.10;;;6.97;;
16792;SDS011;8513;42.662;23.350;2022-08-21T04:31:45;13.95;;;8.85;;
16792;SDS011;8513;42.662;23.350;2022-08-21T04:34:10;12.43;;;8.48;;
16792;SDS011;8513;42.662;23.350;2022-08-21T04:36:37;11.57;;;9.13;;
16792;SDS011;8513;42.662;23.350;2022-08-21T04:39:02;9.85;;;8.20;;
16792;SDS011;8513;42.662;23.350;2022-08-21T04:41:28;12.52;;;8.45;;
16792;SDS011;8513;42.662;23.350;2022-08-21T04:43:54;8.98;;;8.05;;
16792;SDS011;8513;42.662;23.350;2022-08-21T04:46:20;8.57;;;7.68;;
16792;SDS011;8513;42.662;23.350;2022-08-21T04:48:46;10.55;;;8.40;;
16792;SDS011;8513;42.662;23.350;2022-08-21T04:51:16;9.30;;;8.40;;
16792;SDS011;8513;42.662;23.350;2022-08-21T04:53:49;10.10;;;8.73;;
16792;SDS011;8513;42.662;23.350;2022-08-21T04:56:21;9.40;;;8.38;;
16792;SDS011;8513;42.662;23.350;2022-08-21T04:58:50;9.80;;;8.73;;
16792;SDS011;8513;42.662;23.350;2022-08-21T05:01:19;10.95;;;8.30;;
16792;SDS011;8513;42.662;23.350;2022-08-21T05:03:47;9.98;;;8.98;;
16792;SDS011;8513;42.662;23.350;2022-08-21T05:06:15;12.23;;;9.00;;
16792;SDS011;8513;42.662;23.350;2022-08-21T05:08:42;9.95;;;8.95;;
16792;SDS011;8513;42.662;23.350;2022-08-21T05:11:09;11.32;;;8.95;;
16792;SDS011;8513;42.662;23.350;2022-08-21T05:13:35;10.95;;;9.90;;
16792;SDS011;8513;42.662;23.350;2022-08-21T05:16:00;12.18;;;8.52;;
16792;SDS011;8513;42.662;23.350;2022-08-21T05:18:26;9.65;;;8.18;;
16792;SDS011;8513;42.662;23.350;2022-08-21T05:20:51;8.75;;;6.72;;
16792;SDS011;8513;42.662;23.350;2022-08-21T05:23:17;9.13;;;6.63;;
16792;SDS011;8513;42.662;23.350;2022-08-21T05:25:42;8.32;;;5.63;;
16792;SDS011;8513;42.662;23.350;2022-08-21T05:28:08;6.13;;;5.13;;
16792;SDS011;8513;42.662;23.350;2022-08-21T05:30:35;6.13;;;4.43;;
16792;SDS011;8513;42.662;23.350;2022-08-21T05:33:02;8.40;;;4.25;;
16792;SDS011;8513;42.662;23.350;2022-08-21T05:35:29;6.55;;;4.28;;
16792;SDS011;8513;42.662;23.350;2022-08-21T05:37:56;8.73;;;4.78;;
16792;SDS011;8513;42.662;23.350;2022-08-21T05:40:22;5.53;;;4.13;;
16792;SDS011;8513;42.662;23.350;2022-08-21T05:42:48;6.10;;;3.90;;
16792;SDS011;8513;42.662;23.350;2022-08-21T05:45:17;8.65;;;3.80;;
16792;SDS011;8513;42.662;23.350;2022-08-21T05:47:42;5.45;;;3.85;;
16792;SDS011;8513;42.662;23.350;2022-08-21T05:50:08;6.53;;;3.78;;
16792;SDS011;8513;42.662;23.350;2022-08-21T05:52:33;5.10;;;3.70;;
16792;SDS011;8513;42.662;23.350;2022-08-21T05:54:59;6.35;;;3.50;;
16792;SDS011;8513;42.662;23.350;2022-08-21T05:57:24;6.13;;;4.85;;
16792;SDS011;8513;42.662;23.350;2022-08-21T05:59:50;7.75;;;4.55;;
16792;SDS011;8513;42.662;23.350;2022-08-21T06:02:19;9.15;;;6.47;;
16792;SDS011;8513;42.662;23.350;2022-08-21T06:04:46;8.75;;;7.80;;
16792;SDS011;8513;42.662;23.350;2022-08-21T06:07:12;10.40;;;7.55;;
16792;SDS011;8513;42.662;23.350;2022-08-21T06:09:37;9.50;;;8.05;;
16792;SDS011;8513;42.662;23.350;2022-08-21T06:12:04;10.60;;;8.23;;
16792;SDS011;8513;42.662;23.350;2022-08-21T06:14:34;10.43;;;8.43;;
16792;SDS011;8513;42.662;23.350;2022-08-21T06:17:07;10.57;;;8.55;;
16792;SDS011;8513;42.662;23.350;2022-08-21T06:19:34;9.35;;;7.72;;
16792;SDS011;8513;42.662;23.350;2022-08-21T06:22:00;10.60;;;8.45;;
16792;SDS011;8513;42.662;23.350;2022-08-21T06:24:25;9.38;;;7.57;;
16792;SDS011;8513;42.662;23.350;2022-08-21T06:26:52;9.15;;;7.45;;
16792;SDS011;8513;42.662;23.350;2022-08-21T06:29:18;9.82;;;7.05;;
16792;SDS011;8513;42.662;23.350;2022-08-21T06:31:45;10.25;;;9.32;;
16792;SDS011;8513;42.662;23.350;2022-08-21T06:34:11;9.00;;;8.20;;
16792;SDS011;8513;42.662;23.350;2022-08-21T06:36:38;11.77;;;9.50;;
16792;SDS011;8513;42.662;23.350;2022-08-21T06:39:03;9.70;;;8.90;;
16792;SDS011;8513;42.662;23.350;2022-08-21T06:41:29;11.68;;;9.25;;
16792;SDS011;8513;42.662;23.350;2022-08-21T06:43:55;10.73;;;9.57;;
16792;SDS011;8513;42.662;23.350;2022-08-21T06:46:21;12.60;;;9.02;;
16792;SDS011;8513;42.662;23.350;2022-08-21T06:48:51;13.82;;;10.43;;
16792;SDS011;8513;42.662;23.350;2022-08-21T06:51:16;14.15;;;10.32;;
16792;SDS011;8513;42.662;23.350;2022-08-21T06:53:42;14.43;;;10.63;;
16792;SDS011;8513;42.662;23.350;2022-08-21T06:56:07;10.88;;;9.27;;
16792;SDS011;8513;42.662;23.350;2022-08-21T06:58:33;9.52;;;8.60;;
16792;SDS011;8513;42.662;23.350;2022-08-21T07:00:59;9.38;;;8.40;;
16792;SDS011;8513;42.662;23.350;2022-08-21T07:03:26;10.35;;;9.07;;
16792;SDS011;8513;42.662;23.350;2022-08-21T07:05:55;11.35;;;8.13;;
16792;SDS011;8513;42.662;23.350;2022-08-21T07:08:23;10.63;;;8.52;;
16792;SDS011;8513;42.662;23.350;2022-08-21T07:10:49;10.25;;;8.45;;
16792;SDS011;8513;42.662;23.350;2022-08-21T07:13:16;12.20;;;8.32;;
16792;SDS011;8513;42.662;23.350;2022-08-21T07:15:42;8.77;;;7.88;;
16792;SDS011;8513;42.662;23.350;2022-08-21T07:18:07;8.27;;;7.28;;
16792;SDS011;8513;42.662;23.350;2022-08-21T07:20:34;8.05;;;7.15;;
16792;SDS011;8513;42.662;23.350;2022-08-21T07:23:00;8.18;;;7.38;;
16792;SDS011;8513;42.662;23.350;2022-08-21T07:25:29;10.25;;;7.40;;
16792;SDS011;8513;42.662;23.350;2022-08-21T07:27:55;10.45;;;7.75;;
16792;SDS011;8513;42.662;23.350;2022-08-21T07:30:21;8.30;;;7.43;;
16792;SDS011;8513;42.662;23.350;2022-08-21T07:32:47;8.32;;;7.40;;
16792;SDS011;8513;42.662;23.350;2022-08-21T07:35:14;8.82;;;7.38;;
16792;SDS011;8513;42.662;23.350;2022-08-21T07:37:40;10.80;;;7.90;;
16792;SDS011;8513;42.662;23.350;2022-08-21T07:40:05;10.45;;;7.65;;
16792;SDS011;8513;42.662;23.350;2022-08-21T07:42:31;9.43;;;7.38;;
16792;SDS011;8513;42.662;23.350;2022-08-21T07:44:57;8.85;;;6.90;;
16792;SDS011;8513;42.662;23.350;2022-08-21T07:47:22;10.95;;;7.50;;
16792;SDS011;8513;42.662;23.350;2022-08-21T07:49:48;9.82;;;6.72;;
16792;SDS011;8513;42.662;23.350;2022-08-21T07:52:13;10.93;;;7.53;;
16792;SDS011;8513;42.662;23.350;2022-08-21T07:54:39;7.85;;;6.78;;
16792;SDS011;8513;42.662;23.350;2022-08-21T07:57:04;11.75;;;7.20;;
16792;SDS011;8513;42.662;23.350;2022-08-21T07:59:30;9.90;;;6.70;;
16792;SDS011;8513;42.662;23.350;2022-08-21T08:01:55;10.43;;;7.18;;
16792;SDS011;8513;42.662;23.350;2022-08-21T08:04:21;10.52;;;7.22;;
16792;SDS011;8513;42.662;23.350;2022-08-21T08:06:47;10.38;;;8.18;;
16792;SDS011;8513;42.662;23.350;2022-08-21T08:09:12;10.35;;;7.32;;
16792;SDS011;8513;42.662;23.350;2022-08-21T08:11:38;8.88;;;7.50;;
16792;SDS011;8513;42.662;23.350;2022-08-21T08:14:08;8.95;;;7.50;;
16792;SDS011;8513;42.662;23.350;2022-08-21T08:16:33;10.32;;;7.32;;
16792;SDS011;8513;42.662;23.350;2022-08-21T08:18:58;14.95;;;9.13;;
16792;SDS011;8513;42.662;23.350;2022-08-21T08:21:24;9.75;;;8.80;;
16792;SDS011;8513;42.662;23.350;2022-08-21T08:23:49;10.10;;;8.27;;
16792;SDS011;8513;42.662;23.350;2022-08-21T08:26:15;10.65;;;9.63;;
16792;SDS011;8513;42.662;23.350;2022-08-21T08:28:40;10.98;;;9.50;;
16792;SDS011;8513;42.662;23.350;2022-08-21T08:31:07;14.55;;;9.23;;
16792;SDS011;8513;42.662;23.350;2022-08-21T08:33:32;14.10;;;9.48;;
16792;SDS011;8513;42.662;23.350;2022-08-21T08:35:57;10.35;;;9.40;;
16792;SDS011;8513;42.662;23.350;2022-08-21T08:38:24;11.68;;;9.55;;
16792;SDS011;8513;42.662;23.350;2022-08-21T08:43:39;11.30;;;9.05;;
16792;SDS011;8513;42.662;23.350;2022-08-21T08:46:10;10.68;;;9.43;;
16792;SDS011;8513;42.662;23.350;2022-08-21T08:48:46;10.20;;;8.77;;
16792;SDS011;8513;42.662;23.350;2022-08-21T08:51:27;10.85;;;8.60;;
16792;SDS011;8513;42.662;23.350;2022-08-21T08:54:21;11.85;;;8.38;;
16792;SDS011;8513;42.662;23.350;2022-08-21T08:57:00;11.95;;;8.63;;
16792;SDS011;8513;42.662;23.350;2022-08-21T08:59:34;12.43;;;8.77;;
16792;SDS011;8513;42.662;23.350;2022-08-21T09:02:04;12.98;;;9.30;;
16792;SDS011;8513;42.662;23.350;2022-08-21T09:04:30;9.32;;;7.93;;
16792;SDS011;8513;42.662;23.350;2022-08-21T09:15:16;10.63;;;8.13;;
16792;SDS011;8513;42.662;23.350;2022-08-21T09:20:40;10.10;;;8.32;;
16792;SDS011;8513;42.662;23.350;2022-08-21T09:28:23;10.00;;;8.05;;
16792;SDS011;8513;42.662;23.350;2022-08-21T09:30:49;10.50;;;7.78;;
16792;SDS011;8513;42.662;23.350;2022-08-21T09:33:16;8.27;;;7.45;;
16792;SDS011;8513;42.662;23.350;2022-08-21T09:35:50;8.45;;;7.40;;
16792;SDS011;8513;42.662;23.350;2022-08-21T09:38:31;8.73;;;7.72;;
16792;SDS011;8513;42.662;23.350;2022-08-21T09:41:01;11.35;;;7.90;;
16792;SDS011;8513;42.662;23.350;2022-08-21T09:43:32;8.23;;;7.22;;
16792;SDS011;8513;42.662;23.350;2022-08-21T09:46:03;10.15;;;7.03;;
16792;SDS011;8513;42.662;23.350;2022-08-21T09:48:47;10.43;;;7.40;;
16792;SDS011;8513;42.662;23.350;2022-08-21T09:51:16;8.52;;;7.38;;
16792;SDS011;8513;42.662;23.350;2022-08-21T09:53:45;11.40;;;6.82;;
16792;SDS011;8513;42.662;23.350;2022-08-21T09:56:33;9.98;;;6.85;;
16792;SDS011;8513;42.662;23.350;2022-08-21T09:59:20;7.45;;;6.78;;
16792;SDS011;8513;42.662;23.350;2022-08-21T10:01:47;11.25;;;6.55;;
16792;SDS011;8513;42.662;23.350;2022-08-21T10:04:15;9.13;;;6.18;;
16792;SDS011;8513;42.662;23.350;2022-08-21T10:06:45;8.70;;;6.18;;
16792;SDS011;8513;42.662;23.350;2022-08-21T10:09:14;11.32;;;6.45;;
16792;SDS011;8513;42.662;23.350;2022-08-21T10:11:44;7.28;;;5.55;;
16792;SDS011;8513;42.662;23.350;2022-08-21T10:14:48;8.32;;;6.45;;
16792;SDS011;8513;42.662;23.350;2022-08-21T10:20:14;8.82;;;5.55;;
16792;SDS011;8513;42.662;23.350;2022-08-21T10:25:58;10.45;;;6.03;;
16792;SDS011;8513;42.662;23.350;2022-08-21T10:31:14;6.30;;;5.47;;
16792;SDS011;8513;42.662;23.350;2022-08-21T10:36:45;9.13;;;5.85;;
16792;SDS011;8513;42.662;23.350;2022-08-21T10:41:58;6.78;;;5.88;;
16792;SDS011;8513;42.662;23.350;2022-08-21T10:44:35;8.63;;;6.28;;
16792;SDS011;8513;42.662;23.350;2022-08-21T10:47:18;7.80;;;5.88;;
16792;SDS011;8513;42.662;23.350;2022-08-21T10:49:54;7.40;;;5.78;;
16792;SDS011;8513;42.662;23.350;2022-08-21T10:52:29;6.72;;;5.57;;
16792;SDS011;8513;42.662;23.350;2022-08-21T10:57:56;7.43;;;5.28;;
16792;SDS011;8513;42.662;23.350;2022-08-21T11:01:04;10.80;;;6.32;;
16792;SDS011;8513;42.662;23.350;2022-08-21T11:03:41;6.40;;;5.47;;
16792;SDS011;8513;42.662;23.350;2022-08-21T11:06:13;7.70;;;5.22;;
16792;SDS011;8513;42.662;23.350;2022-08-21T11:08:44;5.55;;;4.95;;
16792;SDS011;8513;42.662;23.350;2022-08-21T11:17:37;7.00;;;4.78;;
16792;SDS011;8513;42.662;23.350;2022-08-21T11:23:07;5.63;;;4.68;;
16792;SDS011;8513;42.662;23.350;2022-08-21T11:25:44;6.90;;;5.43;;
16792;SDS011;8513;42.662;23.350;2022-08-21T11:28:34;8.63;;;4.90;;
16792;SDS011;8513;42.662;23.350;2022-08-21T11:36:35;5.78;;;4.47;;
16792;SDS011;8513;42.662;23.350;2022-08-21T11:50:29;6.53;;;4.85;;
16792;SDS011;8513;42.662;23.350;2022-08-21T11:53:01;5.97;;;4.75;;
16792;SDS011;8513;42.662;23.350;2022-08-21T11:55:48;5.13;;;4.63;;
16792;SDS011;8513;42.662;23.350;2022-08-21T11:58:29;5.88;;;4.72;;
16792;SDS011;8513;42.662;23.350;2022-08-21T12:00:59;5.07;;;4.55;;
16792;SDS011;8513;42.662;23.350;2022-08-21T12:06:10;6.40;;;5.03;;
16792;SDS011;8513;42.662;23.350;2022-08-21T12:08:44;5.35;;;4.50;;
16792;SDS011;8513;42.662;23.350;2022-08-21T12:11:22;7.30;;;4.70;;
16792;SDS011;8513;42.662;23.350;2022-08-21T12:16:29;5.97;;;5.15;;
16792;SDS011;8513;42.662;23.350;2022-08-21T12:19:12;7.05;;;5.13;;
16792;SDS011;8513;42.662;23.350;2022-08-21T12:22:07;6.82;;;5.00;;
16792;SDS011;8513;42.662;23.350;2022-08-21T12:24:37;5.85;;;5.07;;
16792;SDS011;8513;42.662;23.350;2022-08-21T12:30:02;8.20;;;5.40;;
16792;SDS011;8513;42.662;23.350;2022-08-21T12:35:08;8.05;;;4.53;;
16792;SDS011;8513;42.662;23.350;2022-08-21T12:37:47;5.75;;;5.07;;
16792;SDS011;8513;42.662;23.350;2022-08-21T12:40:22;8.43;;;5.30;;
16792;SDS011;8513;42.662;23.350;2022-08-21T12:42:53;6.15;;;4.82;;
16792;SDS011;8513;42.662;23.350;2022-08-21T12:45:29;8.38;;;4.95;;
16792;SDS011;8513;42.662;23.350;2022-08-21T12:50:44;8.45;;;5.05;;
16792;SDS011;8513;42.662;23.350;2022-08-21T12:53:25;5.43;;;4.63;;
16792;SDS011;8513;42.662;23.350;2022-08-21T12:55:55;7.10;;;5.45;;
16792;SDS011;8513;42.662;23.350;2022-08-21T12:58:26;6.80;;;5.07;;
16792;SDS011;8513;42.662;23.350;2022-08-21T13:00:57;6.32;;;5.25;;
16792;SDS011;8513;42.662;23.350;2022-08-21T13:03:27;6.65;;;5.15;;
16792;SDS011;8513;42.662;23.350;2022-08-21T13:05:53;7.38;;;5.03;;
16792;SDS011;8513;42.662;23.350;2022-08-21T13:08:19;6.80;;;4.60;;
16792;SDS011;8513;42.662;23.350;2022-08-21T13:10:49;7.63;;;4.60;;
16792;SDS011;8513;42.662;23.350;2022-08-21T13:13:24;6.97;;;4.53;;
16792;SDS011;8513;42.662;23.350;2022-08-21T13:15:56;7.05;;;5.20;;
16792;SDS011;8513;42.662;23.350;2022-08-21T13:18:28;8.52;;;5.10;;
16792;SDS011;8513;42.662;23.350;2022-08-21T13:21:09;6.68;;;4.65;;
16792;SDS011;8513;42.662;23.350;2022-08-21T13:23:37;7.57;;;5.15;;
16792;SDS011;8513;42.662;23.350;2022-08-21T13:29:05;6.05;;;5.07;;
16792;SDS011;8513;42.662;23.350;2022-08-21T13:31:32;6.07;;;4.53;;
16792;SDS011;8513;42.662;23.350;2022-08-21T13:33:58;6.35;;;4.60;;
16792;SDS011;8513;42.662;23.350;2022-08-21T13:36:25;6.18;;;4.93;;
16792;SDS011;8513;42.662;23.350;2022-08-21T13:38:54;9.65;;;4.53;;
16792;SDS011;8513;42.662;23.350;2022-08-21T13:41:21;9.48;;;5.50;;
16792;SDS011;8513;42.662;23.350;2022-08-21T13:44:03;7.82;;;5.13;;
16792;SDS011;8513;42.662;23.350;2022-08-21T13:46:32;5.68;;;4.95;;
16792;SDS011;8513;42.662;23.350;2022-08-21T13:49:00;6.53;;;4.80;;
16792;SDS011;8513;42.662;23.350;2022-08-21T13:51:28;7.82;;;5.30;;
16792;SDS011;8513;42.662;23.350;2022-08-21T13:53:54;7.03;;;4.95;;
16792;SDS011;8513;42.662;23.350;2022-08-21T13:59:06;6.50;;;5.07;;
16792;SDS011;8513;42.662;23.350;2022-08-21T14:01:39;6.70;;;5.90;;
16792;SDS011;8513;42.662;23.350;2022-08-21T14:04:18;6.97;;;4.95;;
16792;SDS011;8513;42.662;23.350;2022-08-21T14:06:47;7.07;;;5.35;;
16792;SDS011;8513;42.662;23.350;2022-08-21T14:09:21;6.90;;;5.22;;
16792;SDS011;8513;42.662;23.350;2022-08-21T14:11:56;8.30;;;5.78;;
16792;SDS011;8513;42.662;23.350;2022-08-21T14:14:28;6.20;;;5.60;;
16792;SDS011;8513;42.662;23.350;2022-08-21T14:16:57;4.95;;;4.50;;
16792;SDS011;8513;42.662;23.350;2022-08-21T14:19:27;7.40;;;5.25;;
16792;SDS011;8513;42.662;23.350;2022-08-21T14:22:12;7.15;;;5.35;;
16792;SDS011;8513;42.662;23.350;2022-08-21T14:24:47;7.55;;;5.20;;
16792;SDS011;8513;42.662;23.350;2022-08-21T14:27:15;6.28;;;5.68;;
16792;SDS011;8513;42.662;23.350;2022-08-21T14:29:43;7.43;;;5.53;;
16792;SDS011;8513;42.662;23.350;2022-08-21T14:32:13;7.15;;;5.40;;
16792;SDS011;8513;42.662;23.350;2022-08-21T14:34:41;6.90;;;5.57;;
16792;SDS011;8513;42.662;23.350;2022-08-21T14:37:07;6.57;;;5.63;;
16792;SDS011;8513;42.662;23.350;2022-08-21T14:39:32;8.77;;;5.32;;
16792;SDS011;8513;42.662;23.350;2022-08-21T14:41:58;8.07;;;5.70;;
16792;SDS011;8513;42.662;23.350;2022-08-21T14:44:25;5.82;;;5.32;;
16792;SDS011;8513;42.662;23.350;2022-08-21T14:46:51;7.15;;;5.10;;
16792;SDS011;8513;42.662;23.350;2022-08-21T14:49:16;7.82;;;5.40;;
16792;SDS011;8513;42.662;23.350;2022-08-21T14:51:42;6.95;;;6.03;;
16792;SDS011;8513;42.662;23.350;2022-08-21T14:54:07;7.65;;;5.40;;
16792;SDS011;8513;42.662;23.350;2022-08-21T14:56:33;6.45;;;5.38;;
16792;SDS011;8513;42.662;23.350;2022-08-21T14:59:04;7.85;;;5.30;;
16792;SDS011;8513;42.662;23.350;2022-08-21T15:01:32;6.75;;;6.07;;
16792;SDS011;8513;42.662;23.350;2022-08-21T15:04:01;5.50;;;5.00;;
16792;SDS011;8513;42.662;23.350;2022-08-21T15:06:26;9.27;;;5.40;;
16792;SDS011;8513;42.662;23.350;2022-08-21T15:08:52;5.75;;;4.80;;
16792;SDS011;8513;42.662;23.350;2022-08-21T15:11:18;6.70;;;5.40;;
16792;SDS011;8513;42.662;23.350;2022-08-21T15:13:45;6.88;;;5.28;;
16792;SDS011;8513;42.662;23.350;2022-08-21T15:16:12;6.53;;;5.47;;
16792;SDS011;8513;42.662;23.350;2022-08-21T15:18:38;6.95;;;5.38;;
16792;SDS011;8513;42.662;23.350;2022-08-21T15:21:05;8.02;;;5.63;;
16792;SDS011;8513;42.662;23.350;2022-08-21T15:23:30;5.88;;;5.30;;
16792;SDS011;8513;42.662;23.350;2022-08-21T15:25:56;6.13;;;5.53;;
16792;SDS011;8513;42.662;23.350;2022-08-21T15:28:23;6.85;;;5.68;;
16792;SDS011;8513;42.662;23.350;2022-08-21T15:30:49;7.80;;;5.53;;
16792;SDS011;8513;42.662;23.350;2022-08-21T15:33:16;7.30;;;5.90;;
16792;SDS011;8513;42.662;23.350;2022-08-21T15:35:42;6.75;;;5.53;;
16792;SDS011;8513;42.662;23.350;2022-08-21T15:38:08;6.57;;;5.68;;
16792;SDS011;8513;42.662;23.350;2022-08-21T15:40:34;7.72;;;5.90;;
16792;SDS011;8513;42.662;23.350;2022-08-21T15:43:01;6.20;;;5.60;;
16792;SDS011;8513;42.662;23.350;2022-08-21T15:45:28;11.23;;;5.90;;
16792;SDS011;8513;42.662;23.350;2022-08-21T15:47:54;9.23;;;5.97;;
16792;SDS011;8513;42.662;23.350;2022-08-21T15:50:20;7.07;;;5.88;;
16792;SDS011;8513;42.662;23.350;2022-08-21T15:52:46;7.70;;;6.18;;
16792;SDS011;8513;42.662;23.350;2022-08-21T15:55:12;6.88;;;6.18;;
16792;SDS011;8513;42.662;23.350;2022-08-21T15:57:38;8.75;;;6.53;;
16792;SDS011;8513;42.662;23.350;2022-08-21T16:00:16;6.63;;;5.78;;
16792;SDS011;8513;42.662;23.350;2022-08-21T16:02:46;7.40;;;6.18;;
16792;SDS011;8513;42.662;23.350;2022-08-21T16:05:14;7.45;;;6.05;;
16792;SDS011;8513;42.662;23.350;2022-08-21T16:07:44;8.07;;;6.28;;